Time;durP1;ratioP1;P1;durP2;ratioP2;P2;SDS_P1;SDS_P2;PMS_P1;PMS_P2;Temp;Humidity;BMP_temperature;BMP_pressure;BME280_temperature;BME280_humidity;BME280_pressure;Samples;Min_cycle;Max_cycle;Signal;HPM_P1;HPM_P2
2022/06/14 00:01:10;;;;;;;6.33;2.37;;;;;;;11.53;83.82;102262.09;5037739;28;20255;-73
2022/06/14 00:03:39;;;;;;;8.50;2.90;;;;;;;11.53;83.73;102268.06;5037409;28;20194;-73
2022/06/14 00:06:16;;;;;;;8.27;2.20;;;;;;;11.52;84.19;102273.19;5037603;28;20252;-74
2022/06/14 00:08:42;;;;;;;11.73;3.47;;;;;;;11.48;84.35;102266.19;5041195;28;20264;-73
2022/06/14 00:11:14;;;;;;;9.00;2.43;;;;;;;11.47;84.02;102270.41;5037320;28;20583;-73
2022/06/14 00:13:40;;;;;;;7.93;2.23;;;;;;;11.45;83.80;102266.03;5037398;28;20190;-74
2022/06/14 00:16:06;;;;;;;6.50;2.10;;;;;;;11.45;83.92;102266.94;5041906;28;20182;-73
2022/06/14 00:18:32;;;;;;;7.10;2.60;;;;;;;11.47;84.35;102269.56;5040280;28;20241;-74
2022/06/14 00:20:57;;;;;;;6.90;2.67;;;;;;;11.50;84.01;102275.69;5043590;28;20206;-74
2022/06/14 00:23:23;;;;;;;9.80;2.43;;;;;;;11.47;84.20;102270.41;5019239;28;20222;-74
2022/06/14 00:25:53;;;;;;;8.30;2.20;;;;;;;11.44;84.44;102270.31;5041120;28;20216;-74
2022/06/14 00:28:20;;;;;;;7.07;2.43;;;;;;;11.34;84.06;102275.88;5038917;28;20192;-74
2022/06/14 00:30:48;;;;;;;8.67;2.47;;;;;;;11.25;84.20;102275.50;5034365;28;20205;-73
2022/06/14 00:33:14;;;;;;;6.20;2.20;;;;;;;11.20;84.29;102277.03;5038654;28;20198;-74
2022/06/14 00:35:41;;;;;;;8.13;2.30;;;;;;;11.19;84.40;102270.16;5027846;28;20198;-73
2022/06/14 00:38:08;;;;;;;10.00;2.83;;;;;;;11.20;84.30;102277.03;5039661;28;20199;-73
2022/06/14 00:40:36;;;;;;;9.97;2.90;;;;;;;11.21;84.49;102273.69;5046754;28;20719;-74
2022/06/14 00:43:05;;;;;;;7.13;2.40;;;;;;;11.20;84.39;102271.91;5041388;28;20181;-73
2022/06/14 00:45:30;;;;;;;5.67;2.27;;;;;;;11.20;84.78;102277.03;5037870;28;20304;-73
2022/06/14 00:48:04;;;;;;;7.20;2.83;;;;;;;11.21;84.89;102285.59;5022020;28;20214;-73
2022/06/14 00:51:03;;;;;;;6.60;2.40;;;;;;;11.20;84.28;102278.75;5018397;28;20223;-73
2022/06/14 00:53:40;;;;;;;6.57;2.20;;;;;;;11.12;83.81;102282.69;5038949;28;20194;-73
2022/06/14 00:56:17;;;;;;;8.70;2.67;;;;;;;11.05;84.28;102279.00;5019426;28;20186;-73
2022/06/14 00:59:09;;;;;;;10.73;2.80;;;;;;;10.97;84.61;102271.81;5024026;28;20191;-73
2022/06/14 01:01:38;;;;;;;5.77;2.57;;;;;;;10.88;85.29;102272.28;4966415;28;20213;-74
2022/06/14 01:04:11;;;;;;;7.20;2.53;;;;;;;10.86;85.31;102271.38;5008830;28;20635;-73
2022/06/14 01:06:45;;;;;;;10.03;2.53;;;;;;;10.85;85.00;102269.63;5010434;28;20191;-74
2022/06/14 01:09:19;;;;;;;8.03;2.53;;;;;;;10.83;84.43;102266.09;5011393;28;20183;-73
2022/06/14 01:11:53;;;;;;;8.97;2.50;;;;;;;10.81;84.56;102257.50;5012042;28;20194;-73
2022/06/14 01:14:24;;;;;;;10.00;2.67;;;;;;;10.77;84.81;102252.16;5029180;28;20182;-73
2022/06/14 01:16:51;;;;;;;5.63;2.20;;;;;;;10.72;85.06;102259.69;5029848;28;20190;-73
2022/06/14 01:19:25;;;;;;;6.70;2.40;;;;;;;10.72;85.37;102252.00;5029516;28;20566;-73
2022/06/14 01:22:03;;;;;;;8.27;2.40;;;;;;;10.73;84.67;102253.72;5028841;28;20644;-73
2022/06/14 01:24:30;;;;;;;6.30;2.33;;;;;;;10.70;85.28;102260.44;5028764;28;20229;-73
2022/06/14 01:26:57;;;;;;;7.77;2.60;;;;;;;10.68;84.96;102265.47;5011524;28;20197;-74
2022/06/14 01:29:24;;;;;;;10.37;2.90;;;;;;;10.68;84.99;102262.91;5012046;28;20660;-74
2022/06/14 01:31:53;;;;;;;6.20;2.07;;;;;;;10.63;84.87;102264.41;5027882;28;20714;-73
2022/06/14 01:34:20;;;;;;;7.70;3.07;;;;;;;10.61;85.05;102266.06;5029402;28;20226;-74
2022/06/14 01:36:46;;;;;;;11.37;2.87;;;;;;;10.53;85.27;102266.53;5028963;28;20186;-73
2022/06/14 01:39:16;;;;;;;6.70;2.40;;;;;;;10.47;85.65;102267.13;5029377;28;20190;-73
2022/06/14 01:42:16;;;;;;;6.93;2.03;;;;;;;10.44;86.34;102258.44;5029373;28;20209;-73
2022/06/14 01:45:00;;;;;;;7.20;2.70;;;;;;;10.45;86.13;102261.06;5029192;28;20205;-73
2022/06/14 01:48:01;;;;;;;8.23;2.87;;;;;;;10.47;86.12;102271.41;5029301;28;20206;-73
2022/06/14 01:53:22;;;;;;;7.47;2.63;;;;;;;10.54;86.49;102266.59;5029419;28;20344;-73
2022/06/14 01:55:57;;;;;;;10.33;2.90;;;;;;;10.53;86.46;102262.28;5029535;28;20795;-73
2022/06/14 01:58:44;;;;;;;7.57;2.73;;;;;;;10.53;86.07;102259.72;5029547;28;20186;-73
2022/06/14 02:01:28;;;;;;;5.60;2.43;;;;;;;10.50;85.71;102259.59;5011278;28;20206;-73
2022/06/14 02:06:53;;;;;;;5.40;2.40;;;;;;;10.45;86.56;102273.00;5029249;28;20177;-73
2022/06/14 02:09:41;;;;;;;7.57;2.90;;;;;;;10.44;86.68;102269.59;5029132;28;20266;-73
2022/06/14 02:12:11;;;;;;;7.13;2.37;;;;;;;10.46;86.29;102269.66;5028002;28;20233;-73
2022/06/14 02:14:48;;;;;;;6.50;2.10;;;;;;;10.40;86.18;102265.13;5011080;28;20182;-73
2022/06/14 02:17:28;;;;;;;6.03;2.97;;;;;;;10.39;86.55;102267.63;5028696;28;20189;-73
2022/06/14 02:20:01;;;;;;;6.50;2.73;;;;;;;10.39;86.66;102271.06;5011464;28;20260;-73
2022/06/14 02:22:35;;;;;;;10.23;2.67;;;;;;;10.45;87.49;102263.63;5011132;28;20221;-73
2022/06/14 02:25:11;;;;;;;8.33;2.70;;;;;;;10.49;87.07;102269.75;5021314;28;20190;-73
2022/06/14 02:27:54;;;;;;;13.40;3.03;;;;;;;10.46;87.10;102269.66;5028635;28;20196;-74
2022/06/14 02:30:24;;;;;;;6.87;2.50;;;;;;;10.45;87.11;102267.88;5010747;28;20214;-73
2022/06/14 02:33:08;;;;;;;7.77;2.47;;;;;;;10.40;87.52;102270.25;5028194;28;20212;-73
2022/06/14 02:35:52;;;;;;;7.83;2.80;;;;;;;10.38;87.02;102261.66;5029025;28;20229;-73
2022/06/14 02:38:37;;;;;;;9.03;2.90;;;;;;;10.35;86.49;102270.84;5010765;28;20185;-73
2022/06/14 02:41:10;;;;;;;6.23;2.40;;;;;;;10.34;87.11;102277.69;5028778;28;20289;-73
2022/06/14 02:43:47;;;;;;;9.37;2.70;;;;;;;10.34;86.91;102269.13;5032120;28;20186;-73
2022/06/14 02:46:18;;;;;;;6.90;2.70;;;;;;;10.29;86.55;102271.50;5015008;28;20231;-73
2022/06/14 02:49:09;;;;;;;8.43;2.67;;;;;;;10.27;86.53;102277.34;5032626;28;20197;-73
2022/06/14 02:51:49;;;;;;;9.87;2.87;;;;;;;10.28;86.94;102277.41;5001432;28;20245;-73
2022/06/14 02:54:27;;;;;;;7.50;2.70;;;;;;;10.24;87.08;102267.84;5032636;28;20190;-74
2022/06/14 02:57:13;;;;;;;13.00;2.73;;;;;;;10.17;86.53;102270.94;5014285;28;20193;-74
2022/06/14 02:59:53;;;;;;;4.57;2.23;;;;;;;10.19;87.03;102274.44;5032349;28;20687;-74
2022/06/14 03:02:24;;;;;;;8.23;2.70;;;;;;;10.19;86.83;102271.88;5031886;28;20179;-73
2022/06/14 03:05:19;;;;;;;9.20;2.93;;;;;;;10.25;87.20;102274.72;5032626;28;20209;-73
2022/06/14 03:08:03;;;;;;;10.73;2.87;;;;;;;10.26;87.49;102275.56;5017970;28;20738;-73
2022/06/14 03:10:47;;;;;;;7.53;2.57;;;;;;;10.26;87.85;102281.59;5014149;28;20214;-74
2022/06/14 03:13:39;;;;;;;6.07;2.63;;;;;;;10.27;87.79;102282.47;5031742;28;20196;-73
2022/06/14 03:16:29;;;;;;;8.20;2.77;;;;;;;10.29;87.39;102283.41;5032115;28;20203;-73
2022/06/14 03:19:09;;;;;;;8.17;2.90;;;;;;;10.34;87.34;102287.03;5012261;28;20167;-73
2022/06/14 03:21:51;;;;;;;9.10;2.70;;;;;;;10.34;87.41;102289.59;4994819;28;20187;-73
2022/06/14 03:24:29;;;;;;;8.87;2.57;;;;;;;10.35;86.80;102287.09;5017949;28;20285;-73
2022/06/14 03:27:14;;;;;;;11.37;2.60;;;;;;;10.41;86.99;102289.91;5014123;28;20222;-73
2022/06/14 03:29:45;;;;;;;8.23;3.00;;;;;;;10.42;86.77;102291.66;5031293;28;20220;-73
2022/06/14 03:32:29;;;;;;;8.93;2.73;;;;;;;10.48;86.74;102291.94;5031706;28;20217;-73
2022/06/14 03:35:03;;;;;;;6.13;2.63;;;;;;;10.53;86.74;102284.44;5031428;28;20210;-73
2022/06/14 03:37:29;;;;;;;6.93;2.83;;;;;;;10.55;86.63;102268.34;5031416;28;20174;-73
2022/06/14 03:40:01;;;;;;;8.10;3.07;;;;;;;10.61;86.98;102271.19;5031077;28;20734;-73
2022/06/14 03:42:27;;;;;;;8.10;3.03;;;;;;;10.65;86.44;102273.03;5031682;28;20712;-73
2022/06/14 03:44:53;;;;;;;9.60;2.67;;;;;;;10.69;86.44;102274.06;5031140;28;20722;-73
2022/06/14 03:47:23;;;;;;;6.00;2.67;;;;;;;10.73;86.29;102274.22;5031072;28;20186;-73
2022/06/14 03:50:19;;;;;;;8.13;2.87;;;;;;;10.79;86.85;102278.75;5013474;28;20238;-73
2022/06/14 03:52:47;;;;;;;8.33;2.70;;;;;;;10.81;86.41;102279.66;5012101;28;20282;-73
2022/06/14 03:55:42;;;;;;;10.87;3.27;;;;;;;10.85;86.71;102274.75;5030742;28;20746;-73
2022/06/14 03:58:32;;;;;;;11.00;3.10;;;;;;;10.91;86.16;102281.78;5013075;28;20726;-73
2022/06/14 04:01:19;;;;;;;10.47;3.20;;;;;;;10.98;86.18;102281.25;5013352;28;20202;-73
2022/06/14 04:04:13;;;;;;;10.43;3.00;;;;;;;11.06;85.62;102274.75;5030964;28;20190;-74
2022/06/14 04:06:50;;;;;;;12.07;3.10;;;;;;;11.13;85.47;102276.72;5013352;28;20190;-73
2022/06/14 04:09:31;;;;;;;5.53;2.50;;;;;;;11.23;85.34;102282.28;5012896;28;20186;-73
2022/06/14 04:12:40;;;;;;;7.50;3.27;;;;;;;11.31;85.69;102280.03;5031041;28;20194;-73
2022/06/14 04:15:27;;;;;;;7.43;2.80;;;;;;;11.41;85.58;102283.00;4996836;28;20189;-73
2022/06/14 04:18:38;;;;;;;9.87;2.80;;;;;;;11.53;85.57;102273.22;5031269;28;20194;-73
2022/06/14 04:21:28;;;;;;;9.20;2.90;;;;;;;11.65;85.51;102270.25;4983963;28;20223;-73
2022/06/14 04:24:00;;;;;;;6.00;2.60;;;;;;;11.77;84.76;102271.63;5031238;28;20193;-73
2022/06/14 04:26:40;;;;;;;9.00;2.77;;;;;;;11.89;84.58;102266.94;5013257;28;20615;-73
2022/06/14 04:29:27;;;;;;;5.67;2.23;;;;;;;11.95;83.75;102267.19;5031242;28;20189;-73
2022/06/14 04:32:02;;;;;;;5.63;2.47;;;;;;;11.97;83.65;102265.53;5030508;28;20348;-73
2022/06/14 04:34:42;;;;;;;10.33;2.83;;;;;;;12.05;83.11;102273.50;5030873;28;20663;-73
2022/06/14 04:37:18;;;;;;;8.80;2.80;;;;;;;12.13;82.35;102272.94;5030313;28;20199;-73
2022/06/14 04:39:58;;;;;;;10.97;2.50;;;;;;;12.13;82.89;102275.50;5030438;28;20232;-73
2022/06/14 04:42:37;;;;;;;10.00;3.10;;;;;;;12.22;82.42;102269.84;5012462;28;20180;-73
2022/06/14 04:45:26;;;;;;;8.33;2.70;;;;;;;12.29;82.55;102277.81;5012941;28;20186;-73
2022/06/14 04:48:04;;;;;;;8.70;2.60;;;;;;;12.18;82.60;102280.84;5029697;28;20190;-73
2022/06/14 04:50:40;;;;;;;9.30;3.60;;;;;;;12.27;82.41;102265.75;5030269;28;20210;-73
2022/06/14 04:53:14;;;;;;;6.30;2.77;;;;;;;12.44;82.13;102268.06;5029958;28;20213;-73
2022/06/14 04:56:02;;;;;;;9.27;2.90;;;;;;;12.56;81.92;102268.50;5030478;28;20174;-73
2022/06/14 04:58:43;;;;;;;5.07;2.63;;;;;;;12.71;81.23;102263.88;5012420;28;20260;-75
2022/06/14 05:01:22;;;;;;;6.73;2.80;;;;;;;12.86;80.90;102269.53;5030419;28;20203;-73
2022/06/14 05:03:57;;;;;;;8.10;2.80;;;;;;;12.93;80.43;102267.19;5029812;28;20194;-73
2022/06/14 05:06:37;;;;;;;8.20;2.87;;;;;;;13.05;80.80;102259.88;5029085;28;20193;-73
2022/06/14 05:09:14;;;;;;;10.57;3.23;;;;;;;13.12;80.04;102267.81;5029526;28;20179;-73
2022/06/14 05:11:43;;;;;;;9.30;2.67;;;;;;;13.17;80.10;102270.56;5012292;28;20202;-73
2022/06/14 05:14:26;;;;;;;10.10;2.47;;;;;;;13.18;79.61;102270.63;5029768;28;20190;-73
2022/06/14 05:17:03;;;;;;;8.63;2.60;;;;;;;13.15;79.46;102275.66;5011750;28;20195;-73
2022/06/14 05:19:44;;;;;;;7.07;2.57;;;;;;;13.10;79.77;102272.06;5012101;28;20566;-74
2022/06/14 05:22:13;;;;;;;9.43;2.57;;;;;;;13.08;79.21;102271.13;5029620;28;20190;-73
2022/06/14 05:24:39;;;;;;;8.77;2.43;;;;;;;13.06;78.96;102282.19;5029943;28;20311;-73
2022/06/14 05:27:36;;;;;;;8.80;2.37;;;;;;;13.19;78.90;102281.75;5011758;28;20190;-74
2022/06/14 05:30:09;;;;;;;6.13;2.23;;;;;;;13.46;78.81;102275.78;5029639;28;20225;-73
2022/06/14 05:32:54;;;;;;;8.67;3.10;;;;;;;13.58;79.12;102278.72;5011503;28;20445;-73
2022/06/14 05:35:23;;;;;;;8.07;2.63;;;;;;;13.83;77.95;102275.19;5029781;28;20217;-73
2022/06/14 05:38:00;;;;;;;7.33;2.43;;;;;;;13.99;77.21;102275.66;5029297;28;20711;-73
2022/06/14 05:40:34;;;;;;;6.83;2.30;;;;;;;14.13;77.29;102274.34;5029532;28;20201;-73
2022/06/14 05:43:13;;;;;;;5.30;2.30;;;;;;;14.27;75.49;102283.34;5028725;28;20759;-73
2022/06/14 05:45:42;;;;;;;8.47;2.27;;;;;;;14.31;74.73;102285.19;5029815;28;20186;-73
2022/06/14 05:48:16;;;;;;;7.87;2.70;;;;;;;14.42;74.68;102277.75;5029377;28;20189;-73
2022/06/14 05:50:47;;;;;;;6.53;2.17;;;;;;;14.72;75.21;102284.59;5029416;28;20242;-73
2022/06/14 05:53:24;;;;;;;8.00;2.40;;;;;;;15.04;73.62;102281.09;5029250;28;20166;-73
2022/06/14 05:56:06;;;;;;;11.20;2.87;;;;;;;15.17;72.91;102280.56;5011877;28;20188;-73
2022/06/14 05:58:37;;;;;;;8.03;2.03;;;;;;;15.22;73.66;102288.41;5029151;28;20564;-74
2022/06/14 06:01:17;;;;;;;9.67;2.50;;;;;;;15.09;72.34;102284.66;5028681;28;20214;-73
2022/06/14 06:03:55;;;;;;;10.37;2.50;;;;;;;14.98;72.19;102290.41;5016455;28;20746;-73
2022/06/14 06:06:25;;;;;;;6.80;1.90;;;;;;;14.97;71.91;102289.50;5028828;28;20182;-74
2022/06/14 06:08:55;;;;;;;10.53;2.20;;;;;;;15.09;73.18;102296.69;5029352;28;20179;-73
2022/06/14 06:11:28;;;;;;;7.27;2.47;;;;;;;15.03;72.40;102296.53;5010817;28;20218;-73
2022/06/14 06:14:07;;;;;;;8.33;2.37;;;;;;;14.93;73.28;102300.63;5029363;28;20188;-73
2022/06/14 06:19:31;;;;;;;8.77;2.70;;;;;;;14.83;73.33;102300.34;5033323;28;20186;-74
2022/06/14 06:22:13;;;;;;;9.37;2.57;;;;;;;14.86;72.58;102303.84;5032817;28;20174;-75
2022/06/14 06:24:51;;;;;;;7.87;2.17;;;;;;;14.89;72.76;102303.06;5033371;28;20193;-74
2022/06/14 06:27:22;;;;;;;7.60;2.07;;;;;;;15.05;72.51;102310.38;5032508;28;20229;-74
2022/06/14 06:30:00;;;;;;;5.57;1.93;;;;;;;15.14;71.95;102310.59;5034224;28;20289;-75
2022/06/14 06:32:31;;;;;;;6.97;2.30;;;;;;;15.03;72.13;102314.59;5050834;28;20705;-74
2022/06/14 06:35:00;;;;;;;7.07;2.20;;;;;;;15.08;72.86;102310.41;5052277;28;20193;-74
2022/06/14 06:37:56;;;;;;;7.37;2.10;;;;;;;15.06;72.39;102312.97;5052135;28;20177;-73
2022/06/14 06:40:23;;;;;;;8.87;2.17;;;;;;;15.25;73.02;102302.28;5047130;28;20359;-74
2022/06/14 06:42:58;;;;;;;8.83;2.30;;;;;;;15.14;72.04;102308.00;5051133;28;20182;-74
2022/06/14 06:45:29;;;;;;;11.03;2.37;;;;;;;14.96;73.73;102315.31;5051733;28;20231;-74
2022/06/14 06:48:02;;;;;;;6.70;2.17;;;;;;;15.19;72.23;102309.00;5052497;28;20170;-74
2022/06/14 06:50:33;;;;;;;8.07;2.50;;;;;;;15.31;72.40;102320.47;5050653;28;20249;-74
2022/06/14 06:53:24;;;;;;;9.87;2.30;;;;;;;15.39;72.49;102319.00;5051842;28;20205;-74
2022/06/14 06:56:08;;;;;;;9.30;2.30;;;;;;;15.20;70.64;102316.75;5051210;28;20194;-73
2022/06/14 06:58:43;;;;;;;9.90;2.03;;;;;;;15.24;70.83;102320.31;5045796;28;20655;-73
2022/06/14 07:01:21;;;;;;;8.30;2.00;;;;;;;15.36;70.90;102321.50;5044061;28;20254;-73
2022/06/14 07:03:52;;;;;;;5.33;1.70;;;;;;;15.54;69.92;102313.28;5024009;28;20667;-75
2022/06/14 07:06:47;;;;;;;11.10;2.17;;;;;;;15.69;69.79;102318.78;5033474;28;20678;-75
2022/06/14 07:09:44;;;;;;;6.93;1.60;;;;;;;15.79;69.30;102320.78;5031589;28;20301;-75
2022/06/14 07:12:18;;;;;;;6.73;1.87;;;;;;;16.08;68.92;102317.09;5021486;28;20237;-75
2022/06/14 07:15:02;;;;;;;6.47;2.10;;;;;;;15.82;68.01;102313.94;5030430;28;20175;-74
2022/06/14 07:17:40;;;;;;;5.20;2.00;;;;;;;15.83;67.78;102304.47;5031180;28;20181;-74
2022/06/14 07:20:26;;;;;;;8.73;2.20;;;;;;;15.95;66.96;102318.53;5030868;28;20205;-74
2022/06/14 07:22:58;;;;;;;8.93;2.40;;;;;;;16.48;66.49;102309.31;5033070;28;20186;-74
2022/06/14 07:25:40;;;;;;;9.80;2.23;;;;;;;17.10;64.98;102295.75;5034279;28;20233;-74
2022/06/14 07:28:15;;;;;;;7.23;1.97;;;;;;;17.08;64.58;102313.00;5019856;28;20255;-74
2022/06/14 07:30:45;;;;;;;5.23;1.80;;;;;;;17.17;64.02;102306.22;5029989;28;20326;-74
2022/06/14 07:33:11;;;;;;;5.83;1.70;;;;;;;16.52;64.98;102314.56;5031179;28;20343;-74
2022/06/14 07:36:23;;;;;;;7.73;2.20;;;;;;;17.50;63.29;102306.78;5029184;28;20198;-74
2022/06/14 07:39:00;;;;;;;4.97;2.03;;;;;;;17.85;60.71;102299.47;5031050;28;20179;-74
2022/06/14 07:41:34;;;;;;;8.90;2.03;;;;;;;17.71;62.76;102301.03;5012365;28;20202;-74
2022/06/14 07:44:17;;;;;;;7.27;2.10;;;;;;;17.05;63.62;102316.41;5031160;28;20833;-74
2022/06/14 07:46:54;;;;;;;7.90;2.20;;;;;;;17.09;63.63;102312.13;5030300;28;20560;-75
2022/06/14 07:49:34;;;;;;;7.93;2.03;;;;;;;17.04;64.11;102321.53;5012888;28;20244;-74
2022/06/14 07:52:07;;;;;;;6.97;2.13;;;;;;;17.18;62.24;102313.13;5029809;28;20241;-74
2022/06/14 07:54:41;;;;;;;10.53;2.43;;;;;;;17.63;61.59;102320.75;5030975;28;20549;-74
2022/06/14 07:57:26;;;;;;;11.43;2.30;;;;;;;17.81;59.98;102311.53;5037731;28;20178;-75
2022/06/14 08:01:07;;;;;;;8.83;2.20;;;;;;;17.61;61.31;102312.13;5049670;28;20261;-74
2022/06/14 08:02:53;;;;;;;8.23;2.37;;;;;;;17.60;60.90;102321.59;5050234;28;20247;-74
2022/06/14 08:05:28;;;;;;;10.27;2.53;;;;;;;17.71;61.02;102314.88;5032348;28;20263;-75
2022/06/14 08:07:57;;;;;;;6.53;2.23;;;;;;;17.96;59.15;102322.09;5051264;28;20180;-74
2022/06/14 08:10:35;;;;;;;5.97;2.23;;;;;;;18.18;57.48;102313.75;5031953;28;20285;-75
2022/06/14 08:13:06;;;;;;;11.43;2.40;;;;;;;17.84;57.67;102313.31;5013351;28;20182;-74
2022/06/14 08:15:45;;;;;;;7.23;2.20;;;;;;;17.52;57.31;102315.44;5030788;28;20261;-74
2022/06/14 08:18:44;;;;;;;9.03;1.87;;;;;;;17.53;57.17;102316.31;5032917;28;20219;-74
2022/06/14 08:21:19;;;;;;;5.00;2.00;;;;;;;17.70;57.90;102320.00;5013521;28;20625;-74
2022/06/14 08:23:54;;;;;;;6.70;1.50;;;;;;;18.02;58.58;102316.13;5030182;28;20569;-74
2022/06/14 08:26:23;;;;;;;5.20;1.50;;;;;;;18.07;56.73;102320.53;5030283;28;20178;-74
2022/06/14 08:28:59;;;;;;;8.00;2.13;;;;;;;18.40;56.57;102310.59;5023155;28;20210;-74
2022/06/14 08:31:50;;;;;;;7.67;1.97;;;;;;;18.28;55.27;102312.16;5030590;28;20683;-74
2022/06/14 08:34:21;;;;;;;8.70;1.87;;;;;;;18.47;55.48;102307.19;5029214;28;20277;-74
2022/06/14 08:37:01;;;;;;;7.13;2.13;;;;;;;18.31;55.42;102309.56;5030467;28;20243;-74
2022/06/14 08:39:42;;;;;;;7.43;1.73;;;;;;;18.07;56.34;102309.28;5029639;28;20257;-74
2022/06/14 08:42:43;;;;;;;4.70;1.63;;;;;;;18.13;56.58;102311.94;5030554;28;20175;-74
2022/06/14 08:45:24;;;;;;;8.80;2.27;;;;;;;18.40;56.55;102307.13;4995810;28;20189;-73
2022/06/14 08:48:07;;;;;;;4.73;1.90;;;;;;;18.70;56.09;102310.03;5030469;28;21065;-74
2022/06/14 08:50:57;;;;;;;5.77;2.17;;;;;;;19.06;55.22;102295.66;5011144;28;20272;-73
2022/06/14 08:53:41;;;;;;;7.37;1.90;;;;;;;19.66;53.61;102298.72;5030267;28;20240;-74
2022/06/14 08:56:21;;;;;;;6.57;1.87;;;;;;;19.76;52.70;102305.69;5027480;28;20221;-74
2022/06/14 08:59:05;;;;;;;7.67;1.77;;;;;;;19.58;53.03;102302.13;5039651;28;20197;-74
2022/06/14 09:01:55;;;;;;;6.07;1.60;;;;;;;19.20;52.97;102309.63;5033604;28;20282;-74
2022/06/14 09:04:39;;;;;;;9.43;2.00;;;;;;;19.10;54.43;102309.53;5022213;28;20186;-74
2022/06/14 09:07:23;;;;;;;6.63;1.90;;;;;;;19.00;54.62;102303.41;5029188;28;20194;-74
2022/06/14 09:10:07;;;;;;;10.47;2.77;;;;;;;18.72;54.46;102316.09;5036949;28;20205;-74
2022/06/14 09:13:15;;;;;;;7.40;2.20;;;;;;;18.77;54.81;102314.41;5039942;28;20232;-73
2022/06/14 09:16:08;;;;;;;5.93;1.60;;;;;;;18.61;52.98;102303.00;4997312;28;20217;-73
2022/06/14 09:18:51;;;;;;;6.03;2.00;;;;;;;18.77;52.57;102304.91;5044941;28;20182;-73
2022/06/14 09:21:30;;;;;;;4.40;1.50;;;;;;;18.79;51.80;102297.16;5048773;28;20675;-75
2022/06/14 09:24:07;;;;;;;8.97;1.93;;;;;;;19.24;50.72;102284.56;5049057;28;20177;-74
2022/06/14 09:26:41;;;;;;;2.70;1.37;;;;;;;19.36;49.46;102287.25;5031679;28;20546;-74
2022/06/14 09:29:51;;;;;;;4.70;1.70;;;;;;;19.95;48.06;102291.06;5048630;28;20169;-74
2022/06/14 09:33:09;;;;;;;6.27;1.80;;;;;;;20.17;46.92;102291.16;5018102;28;20233;-74
2022/06/14 09:35:32;;;;;;;4.43;1.53;;;;;;;20.26;48.08;102293.81;5028712;28;20198;-74
2022/06/14 09:38:26;;;;;;;4.17;1.47;;;;;;;20.52;47.43;102284.34;5029581;28;20174;-74
2022/06/14 09:40:57;;;;;;;8.83;2.10;;;;;;;20.61;47.07;102288.69;5026749;28;20559;-73
2022/06/14 09:43:44;;;;;;;4.10;1.47;;;;;;;19.99;46.67;102298.00;5029652;28;20544;-73
2022/06/14 09:46:15;;;;;;;4.13;1.73;;;;;;;19.72;46.65;102297.88;5028711;28;20182;-74
2022/06/14 09:48:47;;;;;;;5.17;1.73;;;;;;;19.83;46.90;102306.59;5028992;28;20171;-74
2022/06/14 09:51:35;;;;;;;5.03;1.60;;;;;;;19.91;47.86;102304.91;5029880;28;20271;-74
2022/06/14 09:54:23;;;;;;;8.97;1.83;;;;;;;20.24;47.89;102295.53;5048986;28;20186;-74
2022/06/14 09:57:00;;;;;;;6.83;1.30;;;;;;;20.17;48.34;102304.19;5031091;28;20190;-74
2022/06/14 09:59:44;;;;;;;5.47;1.33;;;;;;;20.15;49.21;102299.84;5048540;28;20558;-74
2022/06/14 10:02:48;;;;;;;5.77;1.93;;;;;;;19.83;50.48;102312.69;5046800;28;20909;-74
2022/06/14 10:05:19;;;;;;;6.93;2.10;;;;;;;19.45;49.37;102308.97;5032971;28;20825;-74
2022/06/14 10:08:16;;;;;;;5.93;1.80;;;;;;;19.25;48.90;102307.94;5029001;28;20197;-74
2022/06/14 10:11:35;;;;;;;6.33;1.70;;;;;;;19.34;47.65;102310.63;5027731;28;20671;-73
2022/06/14 10:14:22;;;;;;;3.63;1.20;;;;;;;19.91;47.87;102315.31;4967454;28;20344;-74
2022/06/14 10:17:23;;;;;;;4.60;1.67;;;;;;;20.08;45.96;102309.34;4965997;28;20202;-73
2022/06/14 10:20:03;;;;;;;5.17;1.50;;;;;;;20.22;46.96;102306.81;5013497;28;20229;-73
2022/06/14 10:22:50;;;;;;;5.77;1.73;;;;;;;20.32;45.48;102305.97;5027697;28;20187;-74
2022/06/14 10:25:20;;;;;;;3.73;1.50;;;;;;;20.39;46.11;102311.19;5029053;28;20958;-74
2022/06/14 10:30:40;;;;;;;4.77;1.50;;;;;;;19.96;47.50;102309.28;5028280;28;20289;-74
2022/06/14 10:33:36;;;;;;;5.37;1.67;;;;;;;19.81;49.46;102316.97;5027856;28;20190;-73
2022/06/14 10:36:20;;;;;;;4.40;1.50;;;;;;;19.44;51.11;102312.41;5028653;28;20186;-73
2022/06/14 10:38:48;;;;;;;6.50;2.07;;;;;;;19.43;51.78;102317.63;5019581;28;20229;-74
2022/06/14 10:41:31;;;;;;;6.13;2.23;;;;;;;19.33;52.28;102321.00;5010631;28;20264;-74
2022/06/14 10:44:13;;;;;;;9.47;1.70;;;;;;;19.37;52.28;102321.03;5028359;28;20274;-74
2022/06/14 10:47:14;;;;;;;6.97;1.83;;;;;;;19.46;50.63;102317.63;5010698;28;20211;-74
2022/06/14 10:50:29;;;;;;;4.60;1.40;;;;;;;19.67;51.11;102309.97;5013018;28;20222;-73
2022/06/14 10:53:09;;;;;;;6.57;2.00;;;;;;;19.78;50.08;102310.91;4951582;28;20219;-74
2022/06/14 10:56:02;;;;;;;4.67;1.63;;;;;;;20.08;48.95;102305.91;4959974;28;20953;-73
2022/06/14 10:58:49;;;;;;;7.97;1.87;;;;;;;20.32;49.71;102304.22;4980260;28;20187;-74
2022/06/14 11:01:39;;;;;;;3.47;1.40;;;;;;;20.84;48.90;102290.47;5027927;28;20627;-73
2022/06/14 11:04:25;;;;;;;6.00;2.00;;;;;;;20.88;48.04;102297.41;5029328;28;20900;-73
2022/06/14 11:07:00;;;;;;;7.00;2.00;;;;;;;21.17;46.71;102293.09;5029646;28;20178;-73
2022/06/14 11:09:41;;;;;;;4.73;1.73;;;;;;;21.48;46.34;102299.13;5030760;28;20275;-74
2022/06/14 11:12:25;;;;;;;3.40;1.60;;;;;;;21.37;46.06;102298.28;5031253;28;20273;-73
2022/06/14 11:15:44;;;;;;;3.37;1.60;;;;;;;21.29;45.65;102297.44;4996437;28;20186;-74
2022/06/14 11:18:38;;;;;;;5.60;1.73;;;;;;;21.38;45.26;102298.25;4973376;28;20206;-74
2022/06/14 11:21:04;;;;;;;4.17;1.50;;;;;;;21.56;45.67;102289.56;4962045;28;20223;-74
2022/06/14 11:23:46;;;;;;;5.00;1.70;;;;;;;21.62;45.32;102284.31;5021606;28;20284;-73
2022/06/14 11:26:17;;;;;;;4.43;1.30;;;;;;;22.15;43.20;102283.28;5031952;28;20631;-73
2022/06/14 11:28:53;;;;;;;5.13;1.57;;;;;;;22.14;43.36;102278.06;5030978;28;20171;-74
2022/06/14 11:31:22;;;;;;;4.67;1.60;;;;;;;22.38;42.67;102281.41;5030957;28;20214;-74
2022/06/14 11:33:53;;;;;;;5.20;1.30;;;;;;;22.68;41.56;102279.50;5031092;28;20194;-74
2022/06/14 11:36:37;;;;;;;4.40;1.40;;;;;;;22.72;41.72;102286.44;5031783;28;20729;-74
2022/06/14 11:39:20;;;;;;;5.47;1.70;;;;;;;22.43;42.33;102284.00;5029860;28;20190;-74
2022/06/14 11:41:48;;;;;;;5.17;1.77;;;;;;;22.06;42.71;102278.09;5013336;28;20189;-74
2022/06/14 11:44:32;;;;;;;5.60;1.83;;;;;;;21.86;43.49;102284.28;5031507;28;20221;-73
2022/06/14 11:47:19;;;;;;;4.17;1.57;;;;;;;21.71;44.92;102286.94;5013356;28;20171;-74
2022/06/14 11:50:14;;;;;;;4.77;1.53;;;;;;;21.79;45.42;102286.03;5031052;28;20209;-73
2022/06/14 11:52:59;;;;;;;6.10;1.80;;;;;;;21.94;43.81;102277.28;5012824;28;20210;-74
2022/06/14 11:55:39;;;;;;;4.30;2.10;;;;;;;22.01;44.18;102282.47;5031756;28;20166;-74
2022/06/14 11:58:34;;;;;;;3.50;1.30;;;;;;;21.89;43.87;102284.28;5030994;28;20270;-73
2022/06/14 12:01:18;;;;;;;3.20;1.60;;;;;;;22.39;42.66;102282.28;5029997;28;20570;-74
2022/06/14 12:04:13;;;;;;;5.87;1.90;;;;;;;22.60;42.58;102283.94;5031111;28;20667;-74
2022/06/14 12:06:50;;;;;;;4.70;1.70;;;;;;;22.37;42.23;102286.63;5026475;28;20244;-74
2022/06/14 12:09:54;;;;;;;4.90;1.73;;;;;;;21.80;43.26;102289.53;5028928;28;20210;-74
2022/06/14 12:12:28;;;;;;;3.57;1.40;;;;;;;21.82;44.17;102293.84;5030404;28;20653;-74
2022/06/14 12:15:07;;;;;;;5.47;1.70;;;;;;;21.86;44.11;102290.38;5010946;28;20189;-74
2022/06/14 12:17:42;;;;;;;5.13;1.83;;;;;;;22.02;44.00;102291.19;5030955;28;20194;-74
2022/06/14 12:20:07;;;;;;;5.93;1.70;;;;;;;22.04;44.56;102285.09;5030118;28;20593;-74
2022/06/14 12:23:01;;;;;;;5.90;1.97;;;;;;;21.96;44.03;102284.25;5030230;28;20178;-74
2022/06/14 12:28:46;;;;;;;4.70;1.70;;;;;;;22.13;42.83;102278.94;5012817;28;20198;-74
2022/06/14 12:31:45;;;;;;;4.60;1.87;;;;;;;22.67;42.14;102275.16;5029663;28;20589;-74
2022/06/14 12:34:51;;;;;;;5.00;1.90;;;;;;;22.64;44.27;102280.44;5030581;28;20190;-74
2022/06/14 12:37:29;;;;;;;3.20;1.80;;;;;;;22.86;42.58;102264.56;5011976;28;20359;-73